Terminal Aerodrome Forecast
Issued by NWS

Home | Current Version | Previous Version | Text Only | Print | Product List | Glossary On
Versions: 1 2 3 4 5 6 7 8 9 10 11 12 13 14 15 16 17 18
000
FTUS43 KDVN 141500 AAA
TAFCID
TAF AMD
KCID 141504Z 1415/1512 34018G28KT P6SM -SN OVC020
     FM141700 34016G24KT P6SM BKN025
     FM142100 33015KT P6SM BKN050
     FM150100 32005KT P6SM SCT250=

USA.gov is the U.S. government's official web portal to all federal, state and local government web resources and services.